PWSweather.com
Personal Weather Stations
Station Observations
TENMILE2
Watts Bar Lake, Ten Mile, TN 37880

Watts Bar LakeTen Mile, TN 37880

Lat: 35.686, Lon: -84.7068

Elevation: 767

Station Type: Davis Vue

http://www.wattsbarweather.org

Latest ConditionsUpdated 8:51:48 AM EST Thursday, Nov 14, 2019
Currently Today's Max Today's Min Today's Average
Temperature 32.3°F0.2°C 32.3°F0.2°C 26.7°F-2.9°C 28.0°F-2.2°C
Dew Point 26.5°F-3.1°C 26.9°F-2.8°C 23.5°F-4.7°C 24.6°F-4.1°C
Winds 1.3 mph ENE2.1 kmh ENE 3.0 mph -4.8 kmh - - 0.7 mph 1.1 kmh
Wind Gusts 1.3 mph2.1 kmh 6.3 mph10.1 kmh - -
Humidity 79% 90% 76% 87%
Pressure 30.45 in1031.2 mb 30.45 in1031.2 mb 30.38 in1028.8 mb -
Hour Temp Dew Point Humidity Winds Wind Gusts Pressure Precip Precip Rate Daily Precip Total
08:51 AM 32.3°F0.2°C 26.5°F-3.1°C 79% 1.3 mph ENE2.1 kmh ENE 1.3 mph2.1 kmh 30.45 in1031.2 mb 0.00 in0.0 mm 0.00 in0.0 mm 0.00 in0.0 mm
08:46 AM 32.1°F0.1°C 26.0°F-3.3°C 78% Calm Calm 4.0 mph6.4 kmh 30.45 in1031.2 mb 0.00 in0.0 mm 0.00 in0.0 mm 0.00 in0.0 mm
08:41 AM 32.1°F0.1°C 26.9°F-2.8°C 81% Calm Calm 4.0 mph6.4 kmh 30.45 in1031.2 mb 0.00 in0.0 mm 0.00 in0.0 mm 0.00 in0.0 mm
08:36 AM 32.0°F0.0°C 25.9°F-3.4°C 78% Calm Calm 6.3 mph10.1 kmh 30.44 in1030.8 mb 0.00 in0.0 mm 0.00 in0.0 mm 0.00 in0.0 mm
08:31 AM 31.8°F-0.1°C 25.1°F-3.8°C 76% 3.0 mph ENE4.8 kmh ENE 6.3 mph10.1 kmh 30.44 in1030.8 mb 0.00 in0.0 mm 0.00 in0.0 mm 0.00 in0.0 mm
08:26 AM 31.4°F-0.3°C 25.1°F-3.8°C 77% 2.3 mph NE3.7 kmh NE 3.8 mph6.1 kmh 30.44 in1030.8 mb 0.00 in0.0 mm 0.00 in0.0 mm 0.00 in0.0 mm
08:21 AM 31.0°F-0.6°C 25.9°F-3.4°C 81% 1.5 mph NE2.4 kmh NE 3.8 mph6.1 kmh 30.44 in1030.8 mb 0.00 in0.0 mm 0.00 in0.0 mm 0.00 in0.0 mm
08:16 AM 30.6°F-0.8°C 25.8°F-3.4°C 82% 1.5 mph NE2.4 kmh NE 2.5 mph4.0 kmh 30.44 in1030.8 mb 0.00 in0.0 mm 0.00 in0.0 mm 0.00 in0.0 mm
08:11 AM 30.4°F-0.9°C 26.4°F-3.1°C 85% Calm Calm 1.3 mph2.1 kmh 30.44 in1030.8 mb 0.00 in0.0 mm 0.00 in0.0 mm 0.00 in0.0 mm
08:06 AM 30.2°F-1.0°C 26.2°F-3.2°C 85% 1.3 mph E2.1 kmh E 1.3 mph2.1 kmh 30.44 in1030.8 mb 0.00 in0.0 mm 0.00 in0.0 mm 0.00 in0.0 mm
08:01 AM 30.0°F-1.1°C 26.0°F-3.3°C 85% 1.3 mph E2.1 kmh E 1.3 mph2.1 kmh 30.45 in1031.2 mb 0.00 in0.0 mm 0.00 in0.0 mm 0.00 in0.0 mm
07:56 AM 29.8°F-1.2°C 26.1°F-3.3°C 86% Calm Calm 1.3 mph2.1 kmh 30.44 in1030.8 mb 0.00 in0.0 mm 0.00 in0.0 mm 0.00 in0.0 mm
07:51 AM 29.6°F-1.3°C 25.6°F-3.6°C 85% 1.3 mph E2.1 kmh E 1.3 mph2.1 kmh 30.44 in1030.8 mb 0.00 in0.0 mm 0.00 in0.0 mm 0.00 in0.0 mm
07:46 AM 29.4°F-1.4°C 25.7°F-3.5°C 86% Calm Calm 1.3 mph2.1 kmh 30.45 in1031.2 mb 0.00 in0.0 mm 0.00 in0.0 mm 0.00 in0.0 mm
07:41 AM 29.3°F-1.5°C 25.3°F-3.7°C 85% Calm Calm 1.3 mph2.1 kmh 30.44 in1030.8 mb 0.00 in0.0 mm 0.00 in0.0 mm 0.00 in0.0 mm
07:36 AM 29.3°F-1.5°C 25.9°F-3.4°C 87% 1.3 mph E2.1 kmh E 1.3 mph2.1 kmh 30.44 in1030.8 mb 0.00 in0.0 mm 0.00 in0.0 mm 0.00 in0.0 mm
07:31 AM 29.2°F-1.6°C 25.5°F-3.6°C 86% Calm Calm -- 30.44 in1030.8 mb 0.00 in0.0 mm 0.00 in0.0 mm 0.00 in0.0 mm
07:26 AM 29.2°F-1.6°C 25.5°F-3.6°C 86% Calm Calm 1.0 mph1.6 kmh 30.44 in1030.8 mb 0.00 in0.0 mm 0.00 in0.0 mm 0.00 in0.0 mm
07:21 AM 29.3°F-1.5°C 25.9°F-3.4°C 87% Calm Calm 1.0 mph1.6 kmh 30.43 in1030.5 mb 0.00 in0.0 mm 0.00 in0.0 mm 0.00 in0.0 mm
07:16 AM 29.3°F-1.5°C 25.9°F-3.4°C 87% Calm Calm 1.3 mph2.1 kmh 30.43 in1030.5 mb 0.00 in0.0 mm 0.00 in0.0 mm 0.00 in0.0 mm
07:11 AM 29.2°F-1.6°C 25.8°F-3.4°C 87% 1.3 mph E2.1 kmh E 1.3 mph2.1 kmh 30.43 in1030.5 mb 0.00 in0.0 mm 0.00 in0.0 mm 0.00 in0.0 mm
07:06 AM 29.0°F-1.7°C 25.9°F-3.4°C 88% Calm Calm 1.3 mph2.1 kmh 30.43 in1030.5 mb 0.00 in0.0 mm 0.00 in0.0 mm 0.00 in0.0 mm
07:01 AM 28.8°F-1.8°C 25.4°F-3.7°C 87% Calm Calm 1.3 mph2.1 kmh 30.43 in1030.5 mb 0.00 in0.0 mm 0.00 in0.0 mm 0.00 in0.0 mm
06:56 AM 28.7°F-1.8°C 25.3°F-3.7°C 87% 1.3 mph E2.1 kmh E 1.3 mph2.1 kmh 30.43 in1030.5 mb 0.00 in0.0 mm 0.00 in0.0 mm 0.00 in0.0 mm
06:51 AM 28.5°F-1.9°C 25.1°F-3.8°C 87% Calm Calm 1.3 mph2.1 kmh 30.43 in1030.5 mb 0.00 in0.0 mm 0.00 in0.0 mm 0.00 in0.0 mm
06:46 AM 28.3°F-2.1°C 24.9°F-3.9°C 87% Calm Calm 1.0 mph1.6 kmh 30.43 in1030.5 mb 0.00 in0.0 mm 0.00 in0.0 mm 0.00 in0.0 mm
06:41 AM 28.1°F-2.2°C 24.4°F-4.2°C 86% Calm Calm 1.3 mph2.1 kmh 30.43 in1030.5 mb 0.00 in0.0 mm 0.00 in0.0 mm 0.00 in0.0 mm
06:36 AM 28.1°F-2.2°C 24.4°F-4.2°C 86% Calm Calm 1.3 mph2.1 kmh 30.43 in1030.5 mb 0.00 in0.0 mm 0.00 in0.0 mm 0.00 in0.0 mm
06:31 AM 28.0°F-2.2°C 24.3°F-4.3°C 86% 1.3 mph E2.1 kmh E 1.3 mph2.1 kmh 30.43 in1030.5 mb 0.00 in0.0 mm 0.00 in0.0 mm 0.00 in0.0 mm
06:26 AM 28.0°F-2.2°C 24.3°F-4.3°C 86% Calm Calm 1.3 mph2.1 kmh 30.42 in1030.1 mb 0.00 in0.0 mm 0.00 in0.0 mm 0.00 in0.0 mm
06:21 AM 27.9°F-2.3°C 24.2°F-4.3°C 86% Calm Calm 1.3 mph2.1 kmh 30.42 in1030.1 mb 0.00 in0.0 mm 0.00 in0.0 mm 0.00 in0.0 mm
06:16 AM 27.9°F-2.3°C 24.5°F-4.2°C 87% 1.3 mph E2.1 kmh E 1.3 mph2.1 kmh 30.42 in1030.1 mb 0.00 in0.0 mm 0.00 in0.0 mm 0.00 in0.0 mm
06:11 AM 27.9°F-2.3°C 24.5°F-4.2°C 87% Calm Calm 1.3 mph2.1 kmh 30.42 in1030.1 mb 0.00 in0.0 mm 0.00 in0.0 mm 0.00 in0.0 mm
06:06 AM 27.9°F-2.3°C 24.5°F-4.2°C 87% 1.3 mph E2.1 kmh E 1.3 mph2.1 kmh 30.43 in1030.5 mb 0.00 in0.0 mm 0.00 in0.0 mm 0.00 in0.0 mm
06:01 AM 27.9°F-2.3°C 24.5°F-4.2°C 87% Calm Calm 1.3 mph2.1 kmh 30.42 in1030.1 mb 0.00 in0.0 mm 0.00 in0.0 mm 0.00 in0.0 mm
05:56 AM 27.9°F-2.3°C 24.5°F-4.2°C 87% 1.3 mph E2.1 kmh E 1.3 mph2.1 kmh 30.43 in1030.5 mb 0.00 in0.0 mm 0.00 in0.0 mm 0.00 in0.0 mm
05:51 AM 28.0°F-2.2°C 24.6°F-4.1°C 87% 1.3 mph E2.1 kmh E 2.0 mph3.2 kmh 30.42 in1030.1 mb 0.00 in0.0 mm 0.00 in0.0 mm 0.00 in0.0 mm
05:46 AM 28.1°F-2.2°C 24.7°F-4.1°C 87% Calm Calm 2.0 mph3.2 kmh 30.42 in1030.1 mb 0.00 in0.0 mm 0.00 in0.0 mm 0.00 in0.0 mm
05:41 AM 28.1°F-2.2°C 24.7°F-4.1°C 87% Calm Calm 2.5 mph4.0 kmh 30.41 in1029.8 mb 0.00 in0.0 mm 0.00 in0.0 mm 0.00 in0.0 mm
05:36 AM 28.1°F-2.2°C 24.7°F-4.1°C 87% Calm Calm 2.5 mph4.0 kmh 30.41 in1029.8 mb 0.00 in0.0 mm 0.00 in0.0 mm 0.00 in0.0 mm
05:31 AM 28.0°F-2.2°C 24.6°F-4.1°C 87% 1.3 mph E2.1 kmh E 1.3 mph2.1 kmh 30.42 in1030.1 mb 0.00 in0.0 mm 0.00 in0.0 mm 0.00 in0.0 mm
05:26 AM 27.9°F-2.3°C 24.5°F-4.2°C 87% 1.3 mph E2.1 kmh E 1.3 mph2.1 kmh 30.42 in1030.1 mb 0.00 in0.0 mm 0.00 in0.0 mm 0.00 in0.0 mm
05:21 AM 27.9°F-2.3°C 24.2°F-4.3°C 86% Calm Calm 1.0 mph1.6 kmh 30.41 in1029.8 mb 0.00 in0.0 mm 0.00 in0.0 mm 0.00 in0.0 mm
05:16 AM 27.9°F-2.3°C 24.5°F-4.2°C 87% Calm Calm 1.3 mph2.1 kmh 30.41 in1029.8 mb 0.00 in0.0 mm 0.00 in0.0 mm 0.00 in0.0 mm
05:11 AM 27.9°F-2.3°C 24.5°F-4.2°C 87% Calm Calm 1.3 mph2.1 kmh 30.41 in1029.8 mb 0.00 in0.0 mm 0.00 in0.0 mm 0.00 in0.0 mm
05:06 AM 27.8°F-2.3°C 24.4°F-4.2°C 87% Calm Calm 1.0 mph1.6 kmh 30.40 in1029.5 mb 0.00 in0.0 mm 0.00 in0.0 mm 0.00 in0.0 mm
05:01 AM 27.9°F-2.3°C 24.5°F-4.2°C 87% Calm Calm 1.0 mph1.6 kmh 30.40 in1029.5 mb 0.00 in0.0 mm 0.00 in0.0 mm 0.00 in0.0 mm
04:56 AM 28.0°F-2.2°C 24.9°F-3.9°C 88% Calm Calm 1.3 mph2.1 kmh 30.40 in1029.5 mb 0.00 in0.0 mm 0.00 in0.0 mm 0.00 in0.0 mm
04:51 AM 28.0°F-2.2°C 24.9°F-3.9°C 88% 1.3 mph E2.1 kmh E 1.3 mph2.1 kmh 30.40 in1029.5 mb 0.00 in0.0 mm 0.00 in0.0 mm 0.00 in0.0 mm
04:46 AM 27.8°F-2.3°C 24.4°F-4.2°C 87% 1.3 mph E2.1 kmh E 1.3 mph2.1 kmh 30.40 in1029.5 mb 0.00 in0.0 mm 0.00 in0.0 mm 0.00 in0.0 mm
04:40 AM 27.7°F-2.4°C 24.6°F-4.1°C 88% 1.3 mph E2.1 kmh E 1.3 mph2.1 kmh 30.40 in1029.5 mb 0.00 in0.0 mm 0.00 in0.0 mm 0.00 in0.0 mm
04:35 AM 27.6°F-2.4°C 24.2°F-4.3°C 87% Calm Calm 1.3 mph2.1 kmh 30.40 in1029.5 mb 0.00 in0.0 mm 0.00 in0.0 mm 0.00 in0.0 mm
04:30 AM 27.4°F-2.6°C 24.0°F-4.4°C 87% 1.3 mph E2.1 kmh E 1.3 mph2.1 kmh 30.40 in1029.5 mb 0.00 in0.0 mm 0.00 in0.0 mm 0.00 in0.0 mm
04:25 AM 27.4°F-2.6°C 24.3°F-4.3°C 88% Calm Calm 1.3 mph2.1 kmh 30.40 in1029.5 mb 0.00 in0.0 mm 0.00 in0.0 mm 0.00 in0.0 mm
04:20 AM 27.3°F-2.6°C 23.9°F-4.5°C 87% Calm Calm 2.0 mph3.2 kmh 30.40 in1029.5 mb 0.00 in0.0 mm 0.00 in0.0 mm 0.00 in0.0 mm
04:15 AM 27.3°F-2.6°C 24.2°F-4.3°C 88% Calm Calm 2.0 mph3.2 kmh 30.39 in1029.1 mb 0.00 in0.0 mm 0.00 in0.0 mm 0.00 in0.0 mm
04:10 AM 27.3°F-2.6°C 24.2°F-4.3°C 88% Calm Calm 2.5 mph4.0 kmh 30.39 in1029.1 mb 0.00 in0.0 mm 0.00 in0.0 mm 0.00 in0.0 mm
04:05 AM 27.3°F-2.6°C 24.2°F-4.3°C 88% 1.3 mph E2.1 kmh E 2.5 mph4.0 kmh 30.38 in1028.8 mb 0.00 in0.0 mm 0.00 in0.0 mm 0.00 in0.0 mm
04:00 AM 27.2°F-2.7°C 24.1°F-4.4°C 88% 1.3 mph SE2.1 kmh SE 1.3 mph2.1 kmh 30.38 in1028.8 mb 0.00 in0.0 mm 0.00 in0.0 mm 0.00 in0.0 mm
03:55 AM 27.1°F-2.7°C 24.0°F-4.4°C 88% Calm Calm 1.3 mph2.1 kmh 30.39 in1029.1 mb 0.00 in0.0 mm 0.00 in0.0 mm 0.00 in0.0 mm
03:50 AM 27.0°F-2.8°C 24.1°F-4.4°C 89% Calm Calm 1.3 mph2.1 kmh 30.39 in1029.1 mb 0.00 in0.0 mm 0.00 in0.0 mm 0.00 in0.0 mm
03:45 AM 27.0°F-2.8°C 24.1°F-4.4°C 89% 1.3 mph E2.1 kmh E 1.3 mph2.1 kmh 30.39 in1029.1 mb 0.00 in0.0 mm 0.00 in0.0 mm 0.00 in0.0 mm
03:40 AM 26.9°F-2.8°C 24.0°F-4.4°C 89% 1.3 mph E2.1 kmh E 1.3 mph2.1 kmh 30.39 in1029.1 mb 0.00 in0.0 mm 0.00 in0.0 mm 0.00 in0.0 mm
03:35 AM 26.9°F-2.8°C 23.8°F-4.6°C 88% Calm Calm 2.5 mph4.0 kmh 30.39 in1029.1 mb 0.00 in0.0 mm 0.00 in0.0 mm 0.00 in0.0 mm
03:30 AM 26.9°F-2.8°C 23.8°F-4.6°C 88% Calm Calm 2.5 mph4.0 kmh 30.39 in1029.1 mb 0.00 in0.0 mm 0.00 in0.0 mm 0.00 in0.0 mm
03:25 AM 26.9°F-2.8°C 23.8°F-4.6°C 88% 1.3 mph E2.1 kmh E 1.3 mph2.1 kmh 30.38 in1028.8 mb 0.00 in0.0 mm 0.00 in0.0 mm 0.00 in0.0 mm
03:20 AM 27.0°F-2.8°C 23.9°F-4.5°C 88% 1.3 mph E2.1 kmh E 1.3 mph2.1 kmh 30.38 in1028.8 mb 0.00 in0.0 mm 0.00 in0.0 mm 0.00 in0.0 mm
03:15 AM 27.0°F-2.8°C 23.6°F-4.7°C 87% 1.3 mph E2.1 kmh E 1.3 mph2.1 kmh 30.38 in1028.8 mb 0.00 in0.0 mm 0.00 in0.0 mm 0.00 in0.0 mm
03:10 AM 26.9°F-2.8°C 23.5°F-4.7°C 87% 1.3 mph E2.1 kmh E 2.5 mph4.0 kmh 30.38 in1028.8 mb 0.00 in0.0 mm 0.00 in0.0 mm 0.00 in0.0 mm
03:05 AM 27.0°F-2.8°C 23.6°F-4.7°C 87% 1.3 mph ENE2.1 kmh ENE 2.5 mph4.0 kmh 30.39 in1029.1 mb 0.00 in0.0 mm 0.00 in0.0 mm 0.00 in0.0 mm
03:00 AM 26.9°F-2.8°C 23.5°F-4.7°C 87% Calm Calm 1.3 mph2.1 kmh 30.39 in1029.1 mb 0.00 in0.0 mm 0.00 in0.0 mm 0.00 in0.0 mm
02:55 AM 26.9°F-2.8°C 23.5°F-4.7°C 87% 1.3 mph E2.1 kmh E 1.3 mph2.1 kmh 30.38 in1028.8 mb 0.00 in0.0 mm 0.00 in0.0 mm 0.00 in0.0 mm
02:50 AM 27.0°F-2.8°C 23.6°F-4.7°C 87% Calm Calm 1.3 mph2.1 kmh 30.39 in1029.1 mb 0.00 in0.0 mm 0.00 in0.0 mm 0.00 in0.0 mm
02:45 AM 27.1°F-2.7°C 23.7°F-4.6°C 87% Calm Calm 1.3 mph2.1 kmh 30.38 in1028.8 mb 0.00 in0.0 mm 0.00 in0.0 mm 0.00 in0.0 mm
02:40 AM 27.2°F-2.7°C 23.8°F-4.6°C 87% 1.3 mph E2.1 kmh E 1.3 mph2.1 kmh 30.38 in1028.8 mb 0.00 in0.0 mm 0.00 in0.0 mm 0.00 in0.0 mm
02:35 AM 27.2°F-2.7°C 23.8°F-4.6°C 87% 1.3 mph E2.1 kmh E 1.3 mph2.1 kmh 30.39 in1029.1 mb 0.00 in0.0 mm 0.00 in0.0 mm 0.00 in0.0 mm
02:30 AM 27.3°F-2.6°C 23.9°F-4.5°C 87% 1.3 mph E2.1 kmh E 1.3 mph2.1 kmh 30.39 in1029.1 mb 0.00 in0.0 mm 0.00 in0.0 mm 0.00 in0.0 mm
02:25 AM 27.4°F-2.6°C 24.0°F-4.4°C 87% 1.3 mph E2.1 kmh E 1.3 mph2.1 kmh 30.39 in1029.1 mb 0.00 in0.0 mm 0.00 in0.0 mm 0.00 in0.0 mm
02:20 AM 27.5°F-2.5°C 24.4°F-4.2°C 88% 1.3 mph E2.1 kmh E 2.0 mph3.2 kmh 30.39 in1029.1 mb 0.00 in0.0 mm 0.00 in0.0 mm 0.00 in0.0 mm
02:15 AM 27.6°F-2.4°C 24.5°F-4.2°C 88% 1.3 mph E2.1 kmh E 2.5 mph4.0 kmh 30.39 in1029.1 mb 0.00 in0.0 mm 0.00 in0.0 mm 0.00 in0.0 mm
02:10 AM 27.6°F-2.4°C 24.7°F-4.1°C 89% 1.3 mph ESE2.1 kmh ESE 2.5 mph4.0 kmh 30.39 in1029.1 mb 0.00 in0.0 mm 0.00 in0.0 mm 0.00 in0.0 mm
02:05 AM 27.6°F-2.4°C 24.7°F-4.1°C 89% 1.4 mph E2.3 kmh E 2.5 mph4.0 kmh 30.39 in1029.1 mb 0.00 in0.0 mm 0.00 in0.0 mm 0.00 in0.0 mm
02:00 AM 27.5°F-2.5°C 24.6°F-4.1°C 89% 1.3 mph E2.1 kmh E 1.3 mph2.1 kmh 30.39 in1029.1 mb 0.00 in0.0 mm 0.00 in0.0 mm 0.00 in0.0 mm
01:55 AM 27.5°F-2.5°C 24.6°F-4.1°C 89% Calm Calm 1.3 mph2.1 kmh 30.40 in1029.5 mb 0.00 in0.0 mm 0.00 in0.0 mm 0.00 in0.0 mm
01:50 AM 27.5°F-2.5°C 24.6°F-4.1°C 89% 1.3 mph E2.1 kmh E 1.3 mph2.1 kmh 30.40 in1029.5 mb 0.00 in0.0 mm 0.00 in0.0 mm 0.00 in0.0 mm
01:45 AM 27.5°F-2.5°C 24.6°F-4.1°C 89% 1.3 mph E2.1 kmh E 2.0 mph3.2 kmh 30.40 in1029.5 mb 0.00 in0.0 mm 0.00 in0.0 mm 0.00 in0.0 mm
01:40 AM 27.5°F-2.5°C 24.6°F-4.1°C 89% 1.3 mph E2.1 kmh E 2.5 mph4.0 kmh 30.40 in1029.5 mb 0.00 in0.0 mm 0.00 in0.0 mm 0.00 in0.0 mm
01:35 AM 27.5°F-2.5°C 24.6°F-4.1°C 89% 1.3 mph E2.1 kmh E 2.5 mph4.0 kmh 30.40 in1029.5 mb 0.00 in0.0 mm 0.00 in0.0 mm 0.00 in0.0 mm
01:30 AM 27.0°F-2.8°C 24.4°F-4.2°C 90% 1.9 mph ENE3.1 kmh ENE 2.5 mph4.0 kmh 30.40 in1029.5 mb 0.00 in0.0 mm 0.00 in0.0 mm 0.00 in0.0 mm
01:25 AM 26.9°F-2.8°C 24.3°F-4.3°C 90% 1.3 mph ESE2.1 kmh ESE 1.3 mph2.1 kmh 30.40 in1029.5 mb 0.00 in0.0 mm 0.00 in0.0 mm 0.00 in0.0 mm
01:20 AM 26.9°F-2.8°C 24.3°F-4.3°C 90% 1.3 mph SE2.1 kmh SE 1.3 mph2.1 kmh 30.40 in1029.5 mb 0.00 in0.0 mm 0.00 in0.0 mm 0.00 in0.0 mm
01:15 AM 26.9°F-2.8°C 24.3°F-4.3°C 90% Calm Calm 1.3 mph2.1 kmh 30.39 in1029.1 mb 0.00 in0.0 mm 0.00 in0.0 mm 0.00 in0.0 mm
01:10 AM 26.9°F-2.8°C 24.3°F-4.3°C 90% 1.3 mph ENE2.1 kmh ENE 1.3 mph2.1 kmh 30.39 in1029.1 mb 0.00 in0.0 mm 0.00 in0.0 mm 0.00 in0.0 mm
01:05 AM 26.8°F-2.9°C 24.2°F-4.3°C 90% Calm Calm 1.0 mph1.6 kmh 30.39 in1029.1 mb 0.00 in0.0 mm 0.00 in0.0 mm 0.00 in0.0 mm
01:00 AM 26.8°F-2.9°C 24.2°F-4.3°C 90% Calm Calm 2.5 mph4.0 kmh 30.39 in1029.1 mb 0.00 in0.0 mm 0.00 in0.0 mm 0.00 in0.0 mm
12:55 AM 26.7°F-2.9°C 24.1°F-4.4°C 90% Calm Calm 2.5 mph4.0 kmh 30.39 in1029.1 mb 0.00 in0.0 mm 0.00 in0.0 mm 0.00 in0.0 mm
12:50 AM 26.7°F-2.9°C 23.8°F-4.6°C 89% Calm Calm -- 30.39 in1029.1 mb 0.00 in0.0 mm 0.00 in0.0 mm 0.00 in0.0 mm
12:45 AM 26.9°F-2.8°C 24.0°F-4.4°C 89% Calm Calm 1.0 mph1.6 kmh 30.39 in1029.1 mb 0.00 in0.0 mm 0.00 in0.0 mm 0.00 in0.0 mm
12:40 AM 26.9°F-2.8°C 24.0°F-4.4°C 89% Calm Calm 1.0 mph1.6 kmh 30.39 in1029.1 mb 0.00 in0.0 mm 0.00 in0.0 mm 0.00 in0.0 mm
12:35 AM 26.9°F-2.8°C 24.0°F-4.4°C 89% Calm Calm 1.3 mph2.1 kmh 30.39 in1029.1 mb 0.00 in0.0 mm 0.00 in0.0 mm 0.00 in0.0 mm
12:30 AM 26.9°F-2.8°C 24.0°F-4.4°C 89% Calm Calm 1.3 mph2.1 kmh 30.39 in1029.1 mb 0.00 in0.0 mm 0.00 in0.0 mm 0.00 in0.0 mm
12:25 AM 26.8°F-2.9°C 23.9°F-4.5°C 89% 1.3 mph E2.1 kmh E 1.3 mph2.1 kmh 30.39 in1029.1 mb 0.00 in0.0 mm 0.00 in0.0 mm 0.00 in0.0 mm
12:20 AM 26.7°F-2.9°C 23.8°F-4.6°C 89% 1.3 mph E2.1 kmh E 1.3 mph2.1 kmh 30.39 in1029.1 mb 0.00 in0.0 mm 0.00 in0.0 mm 0.00 in0.0 mm
12:15 AM 26.8°F-2.9°C 23.9°F-4.5°C 89% 1.3 mph E2.1 kmh E 1.3 mph2.1 kmh 30.39 in1029.1 mb 0.00 in0.0 mm 0.00 in0.0 mm 0.00 in0.0 mm
12:10 AM 26.8°F-2.9°C 24.2°F-4.3°C 90% Calm Calm 1.3 mph2.1 kmh 30.39 in1029.1 mb 0.00 in0.0 mm 0.00 in0.0 mm 0.00 in0.0 mm
12:05 AM 26.8°F-2.9°C 24.2°F-4.3°C 90% 1.3 mph E2.1 kmh E 1.3 mph2.1 kmh 30.39 in1029.1 mb 0.00 in0.0 mm 0.00 in0.0 mm 0.00 in0.0 mm